Аэропорт: Михайловка. Барнаул

ICAO: UNBB

METAR:
2019-11-21 09:00:00
UNBB 210900Z 20004MPS CAVOK M24/M28 Q1033 R24/800555 NOSIG RMK QFE752
METAR:
2019-11-21 08:00:00
TAF UNBB 210800Z 2109/2209 22006G13MPS 9999 BKN020CB TEMPO 2109/2112 3100 -SHSN DRSN BKN011CB TEMPO 2112/2209 1000 SHSN DRSN SCT003 BKN011CB